This is the latest recevied weather packets stored in our database for station/object BMCB-30. If no packets are shown the sender has not sent any weather packets the latest 10 day(s).
| Time | Temp. | Humidity | Pressure | Rain* | Wind** | Luminosity | Snow |
|---|---|---|---|---|---|---|---|
| 1777619444 | 13.33° C | 34% | 1026.1 hPa | 0 mm | - | 388 W/m² | - |
| 1777617648 | 12.78° C | 35% | 1026.3 hPa | 0 mm | - | 298 W/m² | - |
| 1777615248 | 11.11° C | 40% | 1026.2 hPa | 0 mm | - | 168 W/m² | - |
| 1777614645 | 10° C | 41% | 1026.2 hPa | 0 mm | - | 52 W/m² | - |
| 1777609241 | 10.56° C | 36% | 1025.6 hPa | 0 mm | - | 2 W/m² | - |
| 1777605646 | 9.44° C | 42% | 1025.8 hPa | 0 mm | - | 0 W/m² | - |
| 1777605044 | 9.44° C | 40% | 1025.9 hPa | 0 mm | - | 0 W/m² | - |
| 1777603240 | 10° C | 39% | 1025.9 hPa | 0 mm | - | 0 W/m² | - |
| 1777601444 | 8.89° C | 45% | 1025.9 hPa | 0 mm | - | 0 W/m² | - |
| 1777600847 | 9.44° C | 42% | 1026 hPa | 0 mm | - | 0 W/m² | - |
| 1777599644 | 10° C | 41% | 1026 hPa | 0 mm | - | 0 W/m² | - |
| 1777597243 | 10° C | 39% | 1026.2 hPa | 0 mm | - | 0 W/m² | - |
| 1777594243 | 8.33° C | 51% | 1026.4 hPa | 0 mm | - | 0 W/m² | - |
| 1777593047 | 8.33° C | 48% | 1026.4 hPa | 0 mm | - | 0 W/m² | - |
| 1777581049 | 13.89° C | 28% | 1025.5 hPa | 0 mm | - | 0 W/m² | - |
| 1777570249 | 18.33° C | 21% | 1023.9 hPa | 0 mm | - | 56 W/m² | - |
| 1777564245 | 20° C | 19% | 1023.5 hPa | 0 mm | - | 446 W/m² | - |
| 1777557653 | 19.44° C | 21% | 1024.1 hPa | 0 mm | - | 690 W/m² | - |
| 1777554645 | 18.89° C | 23% | 1024.6 hPa | 0 mm | - | 306 W/m² | - |
| 1777551645 | 18.33° C | 25% | 1024.9 hPa | 0 mm | - | 658 W/m² | - |
| 1777548644 | 17.22° C | 27% | 1025.4 hPa | 0 mm | - | 482 W/m² | - |
| 1777546244 | 16.67° C | 25% | 1025.8 hPa | 0 mm | - | 806 W/m² | - |
| 1777545043 | 16.67° C | 26% | 1025.7 hPa | 0 mm | - | 788 W/m² | - |
| 1777544444 | 16.11° C | 25% | 1025.8 hPa | 0 mm | - | 682 W/m² | - |
| 1777543843 | 16.11° C | 26% | 1025.8 hPa | 0 mm | - | 542 W/m² | - |
* Rain latest hour (hover to see other rain measurements)
** Current wind speed in m/s (hover to see current wind gust speed)